Time;durP1;ratioP1;P1;durP2;ratioP2;P2;SDS_P1;SDS_P2;PMS_P1;PMS_P2;Temp;Humidity;BMP_temperature;BMP_pressure;BME280_temperature;BME280_humidity;BME280_pressure;Samples;Min_cycle;Max_cycle;Signal;HPM_P1;HPM_P2
2021/11/07 00:10:39;;;;;;;13.68;8.48;;;;;;;;;;4973513;28;20547;-69
2021/11/07 00:13:26;;;;;;;16.63;10.45;;;;;;;;;;4977059;28;20110;-68
2021/11/07 00:16:15;;;;;;;16.33;10.10;;;;;;;;;;4978689;28;20030;-67
2021/11/07 00:22:05;;;;;;;15.65;9.55;;;;;;;;;;4993817;28;20277;-64
2021/11/07 00:25:41;;;;;;;15.57;9.52;;;;;;;;;;4998268;28;20030;-73
2021/11/07 00:28:04;;;;;;;14.50;8.40;;;;;;;;;;4993725;28;20030;-70
2021/11/07 00:31:00;;;;;;;13.75;8.57;;;;;;;;;;4986500;28;20112;-73
2021/11/07 00:36:49;;;;;;;15.70;10.20;;;;;;;;;;5004247;28;20030;-71
2021/11/07 00:45:39;;;;;;;12.38;8.02;;;;;;;;;;4990694;28;20045;-73
2021/11/07 00:48:28;;;;;;;14.63;9.10;;;;;;;;;;4997129;28;20026;-70
2021/11/07 00:57:02;;;;;;;12.30;8.18;;;;;;;;;;4991452;28;20053;-64
2021/11/07 01:02:37;;;;;;;12.70;8.32;;;;;;;;;;4990763;28;20108;-63
2021/11/07 01:05:27;;;;;;;14.05;8.70;;;;;;;;;;4992606;28;20023;-62
2021/11/07 01:08:12;;;;;;;;;;;;;;;;;;4993008;28;20078;-65
2021/11/07 01:10:57;;;;;;;13.63;8.43;;;;;;;;;;4988545;28;19910;-63
2021/11/07 01:13:44;;;;;;;12.77;7.85;;;;;;;;;;4999205;28;20030;-63
2021/11/07 01:16:29;;;;;;;12.30;8.02;;;;;;;;;;4986466;28;20061;-64
2021/11/07 01:19:15;;;;;;;13.85;8.88;;;;;;;;;;4987960;28;20088;-69
2021/11/07 01:22:03;;;;;;;11.85;7.45;;;;;;;;;;4971199;28;20037;-69
2021/11/07 01:24:56;;;;;;;14.02;8.73;;;;;;;;;;4990896;28;20125;-69
2021/11/07 01:27:43;;;;;;;12.63;7.72;;;;;;;;;;4988827;28;20450;-68
2021/11/07 01:30:31;;;;;;;12.75;8.02;;;;;;;;;;4985156;28;20100;-71
2021/11/07 01:33:23;;;;;;;14.77;9.43;;;;;;;;;;4990017;28;20045;-72
2021/11/07 01:44:57;;;;;;;13.05;8.23;;;;;;;;;;5001355;28;20068;-62
2021/11/07 01:47:48;;;;;;;10.75;6.93;;;;;;;;;;4997598;28;20027;-63
2021/11/07 01:50:39;;;;;;;12.55;7.88;;;;;;;;;;4988297;28;20026;-62
2021/11/07 01:53:28;;;;;;;11.90;7.90;;;;;;;;;;4988578;28;20045;-71
2021/11/07 01:56:14;;;;;;;12.80;8.23;;;;;;;;;;4992751;28;20033;-69
2021/11/07 01:58:59;;;;;;;14.93;9.70;;;;;;;;;;4989521;28;20097;-69
2021/11/07 02:01:50;;;;;;;12.93;8.52;;;;;;;;;;4986161;28;20038;-69
2021/11/07 02:04:35;;;;;;;13.52;8.00;;;;;;;;;;4988149;28;20042;-69
2021/11/07 02:07:21;;;;;;;11.35;7.22;;;;;;;;;;4990886;28;20042;-69
2021/11/07 02:10:08;;;;;;;15.95;8.90;;;;;;;;;;4983618;28;20549;-68
2021/11/07 02:12:54;;;;;;;15.23;8.73;;;;;;;;;;5002880;28;20042;-63
2021/11/07 02:15:39;;;;;;;14.52;8.98;;;;;;;;;;4990587;28;20030;-62
2021/11/07 02:18:25;;;;;;;14.00;8.77;;;;;;;;;;4995983;28;20034;-63
2021/11/07 02:21:11;;;;;;;13.02;8.18;;;;;;;;;;4992429;28;20081;-63
2021/11/07 02:23:57;;;;;;;15.70;9.15;;;;;;;;;;4980537;28;20069;-63
2021/11/07 02:26:50;;;;;;;13.55;8.85;;;;;;;;;;4992251;28;20474;-62
2021/11/07 02:29:37;;;;;;;14.73;9.13;;;;;;;;;;4984688;28;20065;-69
2021/11/07 02:32:22;;;;;;;13.20;8.85;;;;;;;;;;4995552;28;20453;-66
2021/11/07 02:35:07;;;;;;;14.05;9.23;;;;;;;;;;5001376;28;20034;-66
2021/11/07 02:37:53;;;;;;;13.63;8.95;;;;;;;;;;4979170;28;20567;-66
2021/11/07 02:40:38;;;;;;;13.32;8.73;;;;;;;;;;4994261;28;20496;-66
2021/11/07 02:43:24;;;;;;;13.60;9.20;;;;;;;;;;4983179;28;20485;-67
2021/11/07 02:46:15;;;;;;;13.82;9.20;;;;;;;;;;4995981;28;20113;-67
2021/11/07 02:49:03;;;;;;;13.02;8.38;;;;;;;;;;4993583;28;20431;-68
2021/11/07 02:51:48;;;;;;;13.48;9.40;;;;;;;;;;4998926;28;20058;-68
2021/11/07 02:54:34;;;;;;;13.48;8.48;;;;;;;;;;4995751;28;20030;-68
2021/11/07 02:57:21;;;;;;;13.13;8.05;;;;;;;;;;4989323;28;20489;-67
2021/11/07 03:00:08;;;;;;;14.57;8.57;;;;;;;;;;4984012;28;20023;-70
2021/11/07 03:02:53;;;;;;;14.15;8.70;;;;;;;;;;4988132;28;20638;-67
2021/11/07 03:05:38;;;;;;;13.60;8.57;;;;;;;;;;4985192;28;20026;-67
2021/11/07 03:08:24;;;;;;;13.43;8.48;;;;;;;;;;4976055;28;20086;-65
2021/11/07 03:11:11;;;;;;;15.13;8.85;;;;;;;;;;4988236;28;20030;-65
2021/11/07 03:14:03;;;;;;;15.57;9.95;;;;;;;;;;4988802;28;20041;-64
2021/11/07 03:16:48;;;;;;;12.77;8.45;;;;;;;;;;4993462;28;20556;-64
2021/11/07 03:19:34;;;;;;;16.73;9.38;;;;;;;;;;4986900;28;20038;-64
2021/11/07 03:22:21;;;;;;;12.45;8.18;;;;;;;;;;4985332;28;20108;-64
2021/11/07 03:25:07;;;;;;;13.40;8.18;;;;;;;;;;5021254;28;20032;-68
2021/11/07 03:27:52;;;;;;;15.93;10.32;;;;;;;;;;4983113;28;20121;-64
2021/11/07 03:30:48;;;;;;;13.48;8.10;;;;;;;;;;4994036;28;20113;-66
2021/11/07 03:33:49;;;;;;;13.70;9.07;;;;;;;;;;4987691;28;20026;-66
2021/11/07 03:36:49;;;;;;;14.88;9.68;;;;;;;;;;4993746;28;20126;-65
2021/11/07 03:39:36;;;;;;;14.35;8.90;;;;;;;;;;5002870;28;20049;-66
2021/11/07 03:42:22;;;;;;;14.55;8.88;;;;;;;;;;4997378;28;20489;-64
2021/11/07 03:45:08;;;;;;;14.55;9.75;;;;;;;;;;4998442;28;20056;-64
2021/11/07 03:47:53;;;;;;;15.23;8.77;;;;;;;;;;4991605;28;20030;-65
2021/11/07 03:50:43;;;;;;;13.25;9.05;;;;;;;;;;5004237;28;20060;-65
2021/11/07 03:53:28;;;;;;;;;;;;;;;;;;4993775;28;20425;-63
2021/11/07 03:56:13;;;;;;;15.18;9.60;;;;;;;;;;4989268;28;19916;-64
2021/11/07 03:58:59;;;;;;;14.85;9.27;;;;;;;;;;4993200;28;20118;-63
2021/11/07 04:01:44;;;;;;;15.23;9.70;;;;;;;;;;4993331;28;20030;-72
2021/11/07 04:04:29;;;;;;;14.75;8.90;;;;;;;;;;4995465;28;20397;-66
2021/11/07 04:07:15;;;;;;;12.77;8.38;;;;;;;;;;4997295;28;20112;-67
2021/11/07 04:10:00;;;;;;;14.10;9.57;;;;;;;;;;4992951;28;20036;-65
2021/11/07 04:12:46;;;;;;;15.98;9.73;;;;;;;;;;4990139;28;20782;-64
2021/11/07 04:15:32;;;;;;;14.77;9.50;;;;;;;;;;5004184;28;20040;-65
2021/11/07 04:18:17;;;;;;;15.55;9.30;;;;;;;;;;4992342;28;20057;-65
2021/11/07 04:21:02;;;;;;;15.80;10.32;;;;;;;;;;4996565;28;20038;-70
2021/11/07 04:23:48;;;;;;;14.02;8.30;;;;;;;;;;4991362;28;20440;-71
2021/11/07 04:26:33;;;;;;;13.40;8.88;;;;;;;;;;4994992;28;20026;-71
2021/11/07 04:29:18;;;;;;;14.02;9.20;;;;;;;;;;4995211;28;20062;-70
2021/11/07 04:32:04;;;;;;;14.68;9.52;;;;;;;;;;4988265;28;20069;-69
2021/11/07 04:34:49;;;;;;;12.20;8.10;;;;;;;;;;4977880;28;20022;-70
2021/11/07 04:37:38;;;;;;;12.57;8.35;;;;;;;;;;4992709;28;20130;-64
2021/11/07 04:40:25;;;;;;;14.70;9.77;;;;;;;;;;4989638;28;20035;-72
2021/11/07 04:43:11;;;;;;;11.90;8.10;;;;;;;;;;5010285;28;20041;-71
2021/11/07 04:45:56;;;;;;;12.98;8.38;;;;;;;;;;4998050;28;20061;-72
2021/11/07 04:48:42;;;;;;;18.85;10.20;;;;;;;;;;4988297;28;20034;-72
2021/11/07 04:51:27;;;;;;;15.45;9.13;;;;;;;;;;4995902;28;20034;-73
2021/11/07 04:54:13;;;;;;;13.73;8.93;;;;;;;;;;4991407;28;20030;-73
2021/11/07 04:56:58;;;;;;;12.00;8.55;;;;;;;;;;4991658;28;20160;-62
2021/11/07 04:59:43;;;;;;;14.88;8.15;;;;;;;;;;4990295;28;20101;-67
2021/11/07 05:02:29;;;;;;;12.38;8.20;;;;;;;;;;4990700;28;20554;-65
2021/11/07 05:05:15;;;;;;;13.63;8.95;;;;;;;;;;4994978;28;20045;-67
2021/11/07 05:08:00;;;;;;;14.90;8.85;;;;;;;;;;4995912;28;20033;-66
2021/11/07 05:10:46;;;;;;;13.75;9.23;;;;;;;;;;4987778;28;20104;-66
2021/11/07 05:13:31;;;;;;;13.20;8.65;;;;;;;;;;4995786;28;20389;-67
2021/11/07 05:16:16;;;;;;;14.00;8.20;;;;;;;;;;4995101;28;20072;-65
2021/11/07 05:19:03;;;;;;;13.80;9.43;;;;;;;;;;4985362;28;20053;-67
2021/11/07 05:21:48;;;;;;;14.88;9.35;;;;;;;;;;4983674;28;20030;-68
2021/11/07 05:24:34;;;;;;;14.38;9.57;;;;;;;;;;4989627;28;20053;-68
2021/11/07 05:27:19;;;;;;;13.82;9.52;;;;;;;;;;5011587;28;20029;-68
2021/11/07 05:30:07;;;;;;;15.20;9.63;;;;;;;;;;4986987;28;20037;-70
2021/11/07 05:32:53;;;;;;;14.57;9.02;;;;;;;;;;4990669;28;20026;-68
2021/11/07 05:35:38;;;;;;;14.43;9.27;;;;;;;;;;5003991;28;20579;-68
2021/11/07 05:38:23;;;;;;;13.40;8.20;;;;;;;;;;4976276;28;20121;-68
2021/11/07 05:41:08;;;;;;;12.40;8.63;;;;;;;;;;5000116;28;20467;-69
2021/11/07 05:43:54;;;;;;;15.32;10.02;;;;;;;;;;4998509;28;20058;-69
2021/11/07 05:46:39;;;;;;;13.05;8.77;;;;;;;;;;4989267;28;20026;-68
2021/11/07 05:49:24;;;;;;;15.48;8.50;;;;;;;;;;5000050;28;20108;-69
2021/11/07 05:52:10;;;;;;;17.13;10.07;;;;;;;;;;4993486;28;20068;-64
2021/11/07 05:54:56;;;;;;;14.82;10.63;;;;;;;;;;4992682;28;20034;-63
2021/11/07 05:57:42;;;;;;;13.07;8.50;;;;;;;;;;4983339;28;20076;-64
2021/11/07 06:00:28;;;;;;;14.65;8.65;;;;;;;;;;4992112;28;20477;-65
2021/11/07 06:03:14;;;;;;;15.38;10.00;;;;;;;;;;4997895;28;20378;-65
2021/11/07 06:05:59;;;;;;;14.27;9.40;;;;;;;;;;4993733;28;20449;-62
2021/11/07 06:08:44;;;;;;;14.40;9.63;;;;;;;;;;4988929;28;20424;-67
2021/11/07 06:11:30;;;;;;;16.75;9.98;;;;;;;;;;4991554;28;20576;-71
2021/11/07 06:14:15;;;;;;;16.60;9.18;;;;;;;;;;4984929;28;20498;-64
2021/11/07 06:17:01;;;;;;;15.45;9.55;;;;;;;;;;4994964;28;20039;-61
2021/11/07 06:19:46;;;;;;;15.00;9.95;;;;;;;;;;5000249;28;20026;-62
2021/11/07 06:22:31;;;;;;;21.48;12.82;;;;;;;;;;4983738;28;20036;-62
2021/11/07 06:25:16;;;;;;;15.30;9.35;;;;;;;;;;4976559;28;20028;-64
2021/11/07 06:28:02;;;;;;;16.23;8.65;;;;;;;;;;4982522;28;20018;-66
2021/11/07 06:30:49;;;;;;;14.68;8.93;;;;;;;;;;4989328;28;20077;-67
2021/11/07 06:33:34;;;;;;;14.48;9.35;;;;;;;;;;4998246;28;20113;-69
2021/11/07 06:36:20;;;;;;;16.10;10.57;;;;;;;;;;4990769;28;20531;-68
2021/11/07 06:39:05;;;;;;;14.07;8.93;;;;;;;;;;4993174;28;20050;-68
2021/11/07 06:41:50;;;;;;;15.07;9.80;;;;;;;;;;4988710;28;20038;-69
2021/11/07 06:44:35;;;;;;;16.65;10.75;;;;;;;;;;4987235;28;20057;-69
2021/11/07 06:47:21;;;;;;;14.15;9.13;;;;;;;;;;4989370;28;20081;-65
2021/11/07 06:50:07;;;;;;;16.30;10.07;;;;;;;;;;4985015;28;20084;-66
2021/11/07 06:52:53;;;;;;;17.52;11.90;;;;;;;;;;4996599;28;20116;-65
2021/11/07 06:55:38;;;;;;;17.60;11.38;;;;;;;;;;4990433;28;20036;-65
2021/11/07 06:58:23;;;;;;;17.80;10.95;;;;;;;;;;4988822;28;20025;-66
2021/11/07 07:01:09;;;;;;;15.43;9.70;;;;;;;;;;4992463;28;20030;-64
2021/11/07 07:03:54;;;;;;;14.80;9.27;;;;;;;;;;4987184;28;20117;-66
2021/11/07 07:06:39;;;;;;;16.40;10.65;;;;;;;;;;4995219;28;20030;-68
2021/11/07 07:09:30;;;;;;;16.65;10.93;;;;;;;;;;4987680;28;20111;-63
2021/11/07 07:15:19;;;;;;;17.75;10.73;;;;;;;;;;4988226;28;20408;-63
2021/11/07 07:33:24;;;;;;;17.50;10.55;;;;;;;;;;4984575;28;20031;-65
2021/11/07 07:35:57;;;;;;;18.58;11.80;;;;;;;;;;4993268;28;20022;-62
2021/11/07 07:38:42;;;;;;;16.77;11.35;;;;;;;;;;4988588;28;20061;-63
2021/11/07 07:41:27;;;;;;;17.08;11.43;;;;;;;;;;4987315;28;20037;-65
2021/11/07 07:44:13;;;;;;;20.27;10.75;;;;;;;;;;4993443;28;20026;-66
2021/11/07 07:46:58;;;;;;;17.92;11.95;;;;;;;;;;4981637;28;20060;-64
2021/11/07 07:49:44;;;;;;;16.88;11.52;;;;;;;;;;4996333;28;20624;-65
2021/11/07 07:52:29;;;;;;;18.13;12.45;;;;;;;;;;4991089;28;20520;-67
2021/11/07 07:55:16;;;;;;;17.77;12.10;;;;;;;;;;4995045;28;20042;-66
2021/11/07 07:58:02;;;;;;;19.35;12.88;;;;;;;;;;4986922;28;20607;-65
2021/11/07 08:00:47;;;;;;;16.95;11.27;;;;;;;;;;4989649;28;20034;-66
2021/11/07 08:03:33;;;;;;;16.55;10.85;;;;;;;;;;4987834;28;20030;-73
2021/11/07 08:06:18;;;;;;;18.45;12.35;;;;;;;;;;4997187;28;20034;-71
2021/11/07 08:09:03;;;;;;;17.65;12.38;;;;;;;;;;4979910;28;20093;-71
2021/11/07 08:11:49;;;;;;;16.35;11.77;;;;;;;;;;4989882;28;20027;-71
2021/11/07 08:14:35;;;;;;;17.88;11.95;;;;;;;;;;4991701;28;20117;-71
2021/11/07 08:17:21;;;;;;;19.60;12.57;;;;;;;;;;4997114;28;20030;-70
2021/11/07 08:20:09;;;;;;;19.85;12.45;;;;;;;;;;4974347;28;20125;-73
2021/11/07 08:22:55;;;;;;;17.75;11.60;;;;;;;;;;4991287;28;20046;-73
2021/11/07 08:25:40;;;;;;;16.95;11.75;;;;;;;;;;4986428;28;20033;-71
2021/11/07 08:28:25;;;;;;;19.13;12.32;;;;;;;;;;4992118;28;20038;-68
2021/11/07 08:31:19;;;;;;;16.20;10.88;;;;;;;;;;4997049;28;20386;-68
2021/11/07 08:34:06;;;;;;;15.68;10.27;;;;;;;;;;4988488;28;20458;-68
2021/11/07 08:37:06;;;;;;;17.52;11.20;;;;;;;;;;4990013;28;20065;-65
2021/11/07 08:39:55;;;;;;;16.88;10.75;;;;;;;;;;4982054;28;20041;-65
2021/11/07 08:42:57;;;;;;;16.17;10.95;;;;;;;;;;4995795;28;20475;-64
2021/11/07 09:01:07;;;;;;;13.55;9.15;;;;;;;;;;4993417;28;20517;-69
2021/11/07 09:06:46;;;;;;;14.15;9.20;;;;;;;;;;4986410;28;20026;-68
2021/11/07 09:09:38;;;;;;;15.95;9.40;;;;;;;;;;4987338;28;20030;-70
2021/11/07 09:12:23;;;;;;;12.52;8.32;;;;;;;;;;4998982;28;20030;-69
2021/11/07 09:15:08;;;;;;;12.90;8.52;;;;;;;;;;4989980;28;20100;-68
2021/11/07 09:17:55;;;;;;;12.27;7.22;;;;;;;;;;5003001;28;20229;-68
2021/11/07 09:21:08;;;;;;;11.40;6.63;;;;;;;;;;4986702;28;20022;-69
2021/11/07 09:24:00;;;;;;;10.93;6.85;;;;;;;;;;5001672;28;20066;-69
2021/11/07 09:26:48;;;;;;;10.70;6.78;;;;;;;;;;4988110;28;20042;-68
2021/11/07 09:29:45;;;;;;;9.25;5.72;;;;;;;;;;5005766;28;20088;-68
2021/11/07 09:35:27;;;;;;;9.90;5.82;;;;;;;;;;4987796;28;20022;-65
2021/11/07 09:38:24;;;;;;;9.45;5.70;;;;;;;;;;4984387;28;20109;-67
2021/11/07 09:46:47;;;;;;;8.43;5.35;;;;;;;;;;4989443;28;20469;-65
2021/11/07 09:49:37;;;;;;;9.38;4.63;;;;;;;;;;4990019;28;20033;-64
2021/11/07 09:52:25;;;;;;;6.78;4.38;;;;;;;;;;4994070;28;20546;-62
2021/11/07 09:55:11;;;;;;;8.10;4.03;;;;;;;;;;4987471;28;20081;-62
2021/11/07 09:57:58;;;;;;;6.55;4.45;;;;;;;;;;4987424;28;20552;-64
2021/11/07 10:00:48;;;;;;;6.40;3.67;;;;;;;;;;4987523;28;20031;-61
2021/11/07 10:03:35;;;;;;;17.85;10.63;;;;;;;;;;4985631;28;20038;-61
2021/11/07 10:06:26;;;;;;;17.10;10.48;;;;;;;;;;4988762;28;20053;-61
2021/11/07 10:09:13;;;;;;;4.75;3.05;;;;;;;;;;5000622;28;20113;-67
2021/11/07 10:12:00;;;;;;;5.90;2.80;;;;;;;;;;4996906;28;20113;-63
2021/11/07 10:14:53;;;;;;;5.53;3.17;;;;;;;;;;4984455;28;20386;-66
2021/11/07 10:17:50;;;;;;;4.57;2.45;;;;;;;;;;4998585;28;20026;-66
2021/11/07 10:20:47;;;;;;;4.38;2.53;;;;;;;;;;4989217;28;20033;-67
2021/11/07 10:23:37;;;;;;;5.72;2.53;;;;;;;;;;4987751;28;20393;-67
2021/11/07 10:26:27;;;;;;;;;;;;;;;;;;4991820;28;20058;-66
2021/11/07 10:29:12;;;;;;;;;;;;;;;;;;4992669;28;20479;-70
2021/11/07 10:32:18;;;;;;;5.40;2.63;;;;;;;;;;4981373;28;20306;-65
2021/11/07 10:47:41;;;;;;;3.85;2.53;;;;;;;;;;4992407;28;20034;-73
2021/11/07 10:53:31;;;;;;;8.90;5.65;;;;;;;;;;4994088;28;20030;-70
2021/11/07 10:56:16;;;;;;;6.43;3.10;;;;;;;;;;4988809;28;20106;-75
2021/11/07 10:59:11;;;;;;;5.15;2.78;;;;;;;;;;4992174;28;20021;-70
2021/11/07 11:01:57;;;;;;;5.22;2.70;;;;;;;;;;5002058;28;20181;-70
2021/11/07 11:04:58;;;;;;;4.28;2.63;;;;;;;;;;4985081;28;20112;-65
2021/11/07 11:08:01;;;;;;;5.68;2.83;;;;;;;;;;4988665;28;20030;-65
2021/11/07 11:16:36;;;;;;;4.20;2.38;;;;;;;;;;4992154;28;20081;-67
2021/11/07 11:22:37;;;;;;;5.55;2.90;;;;;;;;;;4989031;28;20078;-67
2021/11/07 11:25:44;;;;;;;4.75;2.75;;;;;;;;;;4994164;28;20077;-65
2021/11/07 11:28:46;;;;;;;3.33;1.90;;;;;;;;;;5002774;28;20038;-68
2021/11/07 11:31:39;;;;;;;3.50;1.60;;;;;;;;;;4973625;28;20030;-66
2021/11/07 11:34:30;;;;;;;2.45;1.30;;;;;;;;;;4988454;28;20057;-64
2021/11/07 11:37:30;;;;;;;3.47;1.52;;;;;;;;;;4992099;28;20088;-65
2021/11/07 11:45:58;;;;;;;2.55;1.50;;;;;;;;;;4993347;28;20410;-67
2021/11/07 11:49:07;;;;;;;2.40;1.10;;;;;;;;;;4990794;28;20030;-66
2021/11/07 12:00:44;;;;;;;2.00;0.98;;;;;;;;;;5006486;28;20030;-65
2021/11/07 12:03:44;;;;;;;2.17;1.17;;;;;;;;;;5000916;28;20621;-70
2021/11/07 12:06:46;;;;;;;1.27;1.17;;;;;;;;;;4984766;28;20113;-70
2021/11/07 12:09:40;;;;;;;1.00;0.90;;;;;;;;;;4984015;28;20049;-68
2021/11/07 12:12:41;;;;;;;2.10;0.88;;;;;;;;;;4976059;28;20234;-69
2021/11/07 12:15:43;;;;;;;3.90;1.20;;;;;;;;;;5003562;28;20409;-69
2021/11/07 12:18:29;;;;;;;1.52;1.13;;;;;;;;;;4990278;28;20062;-64
2021/11/07 12:21:14;;;;;;;2.00;1.02;;;;;;;;;;4997566;28;21406;-64
2021/11/07 12:24:08;;;;;;;1.35;1.20;;;;;;;;;;4991590;28;20026;-64
2021/11/07 12:27:13;;;;;;;2.22;1.00;;;;;;;;;;4994159;28;20677;-65
2021/11/07 12:29:58;;;;;;;1.40;1.08;;;;;;;;;;5005419;28;20321;-64
2021/11/07 12:32:45;;;;;;;2.35;1.40;;;;;;;;;;4995632;28;20064;-65
2021/11/07 12:35:40;;;;;;;1.55;0.80;;;;;;;;;;4998955;28;20029;-66
2021/11/07 12:41:31;;;;;;;0.80;0.80;;;;;;;;;;5007149;28;20023;-63
2021/11/07 12:44:20;;;;;;;2.47;1.25;;;;;;;;;;5011315;28;20046;-63
2021/11/07 12:47:09;;;;;;;1.55;1.20;;;;;;;;;;4992714;28;20030;-65
2021/11/07 12:49:59;;;;;;;1.60;1.00;;;;;;;;;;4983279;28;20068;-63
2021/11/07 12:52:44;;;;;;;;;;;;;;;;;;5004660;28;20053;-64
2021/11/07 12:55:31;;;;;;;1.05;0.95;;;;;;;;;;4989452;28;20360;-67
2021/11/07 12:58:17;;;;;;;2.38;1.10;;;;;;;;;;4976267;28;20391;-67
2021/11/07 13:01:02;;;;;;;1.77;1.23;;;;;;;;;;4999194;28;20088;-65
2021/11/07 13:03:51;;;;;;;1.58;1.17;;;;;;;;;;4989374;28;20053;-63
2021/11/07 13:06:36;;;;;;;1.38;1.10;;;;;;;;;;4988178;28;20461;-66
2021/11/07 13:09:26;;;;;;;1.25;1.05;;;;;;;;;;5002253;28;20489;-65
2021/11/07 13:12:20;;;;;;;;;;;;;;;;;;4971439;28;20040;-65
2021/11/07 13:21:34;;;;;;;3.35;1.30;;;;;;;;;;4989114;28;20030;-69
2021/11/07 13:27:22;;;;;;;3.42;1.20;;;;;;;;;;4997736;28;20056;-68
2021/11/07 13:30:15;;;;;;;2.00;1.05;;;;;;;;;;4976385;28;20041;-68
2021/11/07 13:33:00;;;;;;;1.38;0.93;;;;;;;;;;5009636;28;20495;-70
2021/11/07 13:35:46;;;;;;;3.13;1.25;;;;;;;;;;4990411;28;20120;-66
2021/11/07 13:38:38;;;;;;;1.00;0.80;;;;;;;;;;5002495;28;20122;-65
2021/11/07 13:41:25;;;;;;;4.32;1.00;;;;;;;;;;4999497;28;20029;-68
2021/11/07 13:44:17;;;;;;;3.47;1.10;;;;;;;;;;4997154;28;20034;-66
2021/11/07 13:47:04;;;;;;;1.85;0.82;;;;;;;;;;4990169;28;20080;-65
2021/11/07 13:49:52;;;;;;;1.92;0.98;;;;;;;;;;4997018;28;20406;-71
2021/11/07 13:52:40;;;;;;;1.17;0.88;;;;;;;;;;4979332;28;20038;-71
2021/11/07 13:55:27;;;;;;;3.90;1.25;;;;;;;;;;4992382;28;20041;-71
2021/11/07 13:58:14;;;;;;;1.85;1.10;;;;;;;;;;4984431;28;20402;-72
2021/11/07 14:01:05;;;;;;;1.50;1.00;;;;;;;;;;4988414;28;20474;-69
2021/11/07 14:03:54;;;;;;;3.17;1.08;;;;;;;;;;5003458;28;20502;-69
2021/11/07 14:06:40;;;;;;;2.60;1.10;;;;;;;;;;5001767;28;20045;-72
2021/11/07 14:09:27;;;;;;;1.30;0.75;;;;;;;;;;5001108;28;20029;-66
2021/11/07 14:12:32;;;;;;;1.25;0.77;;;;;;;;;;4989059;28;20478;-63
2021/11/07 14:15:33;;;;;;;2.38;1.40;;;;;;;;;;4996056;28;20482;-63
2021/11/07 14:18:25;;;;;;;1.45;1.08;;;;;;;;;;4995552;28;20042;-65
2021/11/07 14:21:11;;;;;;;3.85;1.30;;;;;;;;;;4988252;28;20038;-64
2021/11/07 14:24:06;;;;;;;1.83;1.02;;;;;;;;;;4989124;28;20501;-63
2021/11/07 14:26:58;;;;;;;1.85;1.20;;;;;;;;;;4982569;28;20081;-65
2021/11/07 14:29:54;;;;;;;3.20;1.30;;;;;;;;;;4983154;28;20026;-64
2021/11/07 14:32:42;;;;;;;1.98;1.23;;;;;;;;;;4983053;28;20109;-66
2021/11/07 14:35:30;;;;;;;2.00;1.00;;;;;;;;;;4986400;28;20026;-63
2021/11/07 14:38:29;;;;;;;4.03;1.23;;;;;;;;;;4971783;28;20062;-63
2021/11/07 14:41:21;;;;;;;1.45;1.00;;;;;;;;;;4980109;28;20030;-63
2021/11/07 14:44:21;;;;;;;1.95;1.25;;;;;;;;;;4985855;28;20045;-64
2021/11/07 14:47:07;;;;;;;;;;;;;;;;;;4988956;28;20037;-65
2021/11/07 14:50:25;;;;;;;3.05;1.15;;;;;;;;;;4983293;28;19906;-64
2021/11/07 15:02:02;;;;;;;7.93;2.65;;;;;;;;;;4992782;28;20529;-63
2021/11/07 15:04:57;;;;;;;2.90;1.55;;;;;;;;;;4991446;28;20042;-65
2021/11/07 15:07:48;;;;;;;2.05;1.38;;;;;;;;;;4998835;28;20389;-67
2021/11/07 15:16:49;;;;;;;2.35;1.10;;;;;;;;;;4999808;28;20515;-66
2021/11/07 15:19:38;;;;;;;2.45;1.35;;;;;;;;;;5009346;28;20037;-65
2021/11/07 15:22:46;;;;;;;1.83;1.23;;;;;;;;;;5012892;28;20529;-70
2021/11/07 15:25:36;;;;;;;1.65;1.35;;;;;;;;;;4998076;28;20029;-67
2021/11/07 15:28:26;;;;;;;3.30;1.48;;;;;;;;;;5008040;28;20038;-66
2021/11/07 15:31:16;;;;;;;2.55;1.98;;;;;;;;;;5010103;28;20041;-68
2021/11/07 15:34:03;;;;;;;3.78;1.65;;;;;;;;;;4998833;28;20026;-66
2021/11/07 15:36:49;;;;;;;3.45;1.50;;;;;;;;;;4998797;28;20039;-66
2021/11/07 15:39:45;;;;;;;2.85;1.52;;;;;;;;;;4999155;28;20035;-65
2021/11/07 15:42:32;;;;;;;3.60;1.30;;;;;;;;;;5008661;28;20049;-71
2021/11/07 15:45:23;;;;;;;3.38;1.67;;;;;;;;;;5001523;28;20069;-64
2021/11/07 15:48:09;;;;;;;3.38;1.67;;;;;;;;;;5004534;28;20076;-67
2021/11/07 15:51:07;;;;;;;2.42;2.00;;;;;;;;;;5004630;28;20025;-65
2021/11/07 15:57:31;;;;;;;2.50;1.58;;;;;;;;;;4994616;28;20026;-64
2021/11/07 16:06:17;;;;;;;2.53;1.65;;;;;;;;;;4988088;28;20100;-64
2021/11/07 16:18:09;;;;;;;3.03;1.80;;;;;;;;;;5003422;28;20038;-68
2021/11/07 16:20:54;;;;;;;2.35;1.67;;;;;;;;;;4991121;28;20381;-68
2021/11/07 16:23:39;;;;;;;3.55;2.00;;;;;;;;;;4991448;28;20038;-69
2021/11/07 16:26:24;;;;;;;3.60;2.05;;;;;;;;;;4986249;28;20026;-68
2021/11/07 16:29:10;;;;;;;2.00;1.75;;;;;;;;;;5002016;28;20041;-70
2021/11/07 16:32:08;;;;;;;4.55;2.50;;;;;;;;;;4998924;28;20497;-70
2021/11/07 16:37:54;;;;;;;3.67;2.05;;;;;;;;;;4986351;28;20129;-71
2021/11/07 16:40:46;;;;;;;5.28;2.20;;;;;;;;;;4992919;28;20070;-64
2021/11/07 16:43:31;;;;;;;4.22;2.10;;;;;;;;;;5004230;28;20120;-66
2021/11/07 16:46:18;;;;;;;7.20;2.67;;;;;;;;;;4989959;28;20096;-64
2021/11/07 16:49:05;;;;;;;5.32;2.35;;;;;;;;;;4996807;28;20461;-63
2021/11/07 16:57:42;;;;;;;4.07;2.40;;;;;;;;;;4994339;28;20032;-63
2021/11/07 17:00:33;;;;;;;5.88;2.78;;;;;;;;;;4985035;28;20046;-64
2021/11/07 17:03:32;;;;;;;4.38;2.25;;;;;;;;;;5007051;28;20057;-63
2021/11/07 17:11:58;;;;;;;3.35;2.20;;;;;;;;;;4990748;28;20382;-66
2021/11/07 17:14:46;;;;;;;4.60;2.00;;;;;;;;;;4990598;28;20026;-63
2021/11/07 17:17:51;;;;;;;4.30;1.90;;;;;;;;;;4989873;28;20180;-66
2021/11/07 17:26:29;;;;;;;5.90;3.22;;;;;;;;;;5002409;28;20121;-64
2021/11/07 17:29:16;;;;;;;42.17;15.45;;;;;;;;;;4972902;28;20462;-68
2021/11/07 17:32:11;;;;;;;31.50;13.75;;;;;;;;;;4999307;28;20030;-64
2021/11/07 17:38:20;;;;;;;10.93;4.45;;;;;;;;;;4958228;28;20046;-63
2021/11/07 17:56:28;;;;;;;4.75;2.65;;;;;;;;;;4990546;28;20031;-65
2021/11/07 17:59:13;;;;;;;5.43;3.05;;;;;;;;;;4985304;28;20038;-66
2021/11/07 18:01:59;;;;;;;7.93;3.38;;;;;;;;;;4989894;28;20490;-64
2021/11/07 18:04:44;;;;;;;3.95;2.80;;;;;;;;;;4999543;28;20022;-63
2021/11/07 18:07:47;;;;;;;3.97;2.53;;;;;;;;;;4990009;28;20069;-68
2021/11/07 18:10:33;;;;;;;6.88;3.38;;;;;;;;;;4998088;28;20036;-68
2021/11/07 18:13:22;;;;;;;5.45;3.13;;;;;;;;;;4994576;28;20037;-68
2021/11/07 18:16:07;;;;;;;4.15;2.78;;;;;;;;;;4982347;28;20014;-69
2021/11/07 18:18:52;;;;;;;4.10;2.63;;;;;;;;;;4991184;28;20489;-69
2021/11/07 18:24:57;;;;;;;4.82;2.38;;;;;;;;;;4991346;28;20465;-70
2021/11/07 18:27:42;;;;;;;4.28;2.22;;;;;;;;;;4986505;28;20521;-67
2021/11/07 18:30:28;;;;;;;3.25;2.17;;;;;;;;;;4985272;28;20038;-65
2021/11/07 18:33:13;;;;;;;3.15;2.30;;;;;;;;;;4994262;28;20129;-64
2021/11/07 18:35:59;;;;;;;7.57;3.00;;;;;;;;;;4993001;28;20073;-67
2021/11/07 18:38:46;;;;;;;11.77;6.32;;;;;;;;;;4989304;28;20050;-67
2021/11/07 18:41:32;;;;;;;4.03;2.53;;;;;;;;;;4988581;28;20096;-65
2021/11/07 18:44:18;;;;;;;6.07;2.08;;;;;;;;;;5001220;28;20568;-68
2021/11/07 18:47:04;;;;;;;4.80;2.40;;;;;;;;;;4995996;28;20038;-64
2021/11/07 18:49:49;;;;;;;2.10;1.65;;;;;;;;;;5002050;28;20030;-65
2021/11/07 18:52:34;;;;;;;5.13;2.25;;;;;;;;;;4990937;28;20417;-66
2021/11/07 18:55:20;;;;;;;2.80;1.95;;;;;;;;;;4985275;28;20069;-66
2021/11/07 18:58:07;;;;;;;3.88;2.28;;;;;;;;;;4992919;28;20030;-65
2021/11/07 19:00:53;;;;;;;3.53;1.83;;;;;;;;;;4985229;28;20049;-65
2021/11/07 19:03:38;;;;;;;4.65;2.47;;;;;;;;;;4997788;28;20133;-70
2021/11/07 19:06:23;;;;;;;3.80;1.98;;;;;;;;;;4998426;28;20030;-66
2021/11/07 19:09:09;;;;;;;3.55;1.75;;;;;;;;;;4988250;28;20302;-67
2021/11/07 19:11:55;;;;;;;2.45;1.98;;;;;;;;;;4992790;28;20032;-67
2021/11/07 19:14:41;;;;;;;3.10;1.88;;;;;;;;;;4992510;28;20404;-67
2021/11/07 19:17:26;;;;;;;5.05;2.22;;;;;;;;;;4995961;28;20030;-65
2021/11/07 19:20:13;;;;;;;41.08;28.05;;;;;;;;;;4997140;28;20113;-66
2021/11/07 19:22:58;;;;;;;7.90;4.70;;;;;;;;;;4988860;28;20518;-68
2021/11/07 19:25:43;;;;;;;4.28;2.10;;;;;;;;;;4982919;28;20026;-68
2021/11/07 19:28:29;;;;;;;3.13;2.00;;;;;;;;;;4996801;28;20041;-69
2021/11/07 19:31:15;;;;;;;4.53;1.83;;;;;;;;;;5003801;28;20049;-69
2021/11/07 19:34:00;;;;;;;2.90;2.15;;;;;;;;;;4982297;28;20077;-68
2021/11/07 19:36:45;;;;;;;4.22;2.20;;;;;;;;;;4974576;28;20098;-72
2021/11/07 19:39:31;;;;;;;3.10;2.05;;;;;;;;;;4982744;28;20044;-66
2021/11/07 19:42:18;;;;;;;3.55;2.20;;;;;;;;;;4996052;28;20523;-64
2021/11/07 19:45:05;;;;;;;3.47;2.28;;;;;;;;;;4971125;28;20030;-66
2021/11/07 19:47:53;;;;;;;5.88;3.05;;;;;;;;;;5003230;28;20113;-63
2021/11/07 19:50:38;;;;;;;3.13;2.28;;;;;;;;;;4973079;28;20065;-65
2021/11/07 19:53:24;;;;;;;3.03;2.08;;;;;;;;;;5006668;28;20026;-65
2021/11/07 19:56:10;;;;;;;4.22;1.98;;;;;;;;;;4993189;28;20038;-66
2021/11/07 19:58:55;;;;;;;3.75;2.22;;;;;;;;;;4977428;28;20110;-65
2021/11/07 20:07:27;;;;;;;6.03;4.18;;;;;;;;;;4994599;28;20026;-62
2021/11/07 20:10:12;;;;;;;4.00;2.55;;;;;;;;;;4996844;28;20469;-62
2021/11/07 20:12:57;;;;;;;4.10;1.77;;;;;;;;;;4994041;28;20033;-65
2021/11/07 20:15:43;;;;;;;3.22;2.15;;;;;;;;;;4986588;28;20054;-65
2021/11/07 20:18:28;;;;;;;4.57;2.20;;;;;;;;;;4988779;28;20026;-64